Accueil
METAR-TAF:

METAR-TAF

Aéroports :

Aéroport de Chibougamau-Chapais

Chibougamau, Québec, Canada

latitude: 49-46N, longitude: 074-32W, altitude: 388 m

Observation

Le bulletin a été fait il y a 14 minutes, à 08:16 UTC
Vent 7 kt de ouest/sud-ouest
Température 0°C
Humidité 100%
Pression 998 hPa
Visibilité: 9.7 km
Ciel couvert à une hauteur de 600 ft
neige faible

METAR: CYMT 170816Z AUTO 24007KT 6SM -SN OVC006 00/00 A2946 RMK SLP995

Heure: 04:30 (08:30 UTC)

Prévision

Le bulletin a été fait il y a 11 heures et 42 minutes, à 20:48 UTC
Prévision valable du 16 à 20 UTC au 16 à 24 UTC
Vent 8 kt de sud
Visibilité: 9.7 km
Ciel couvert à une hauteur de 2500 ft
neige faible
Temporairement
du 16 à 20 UTC au 16 à 24 UTC
Ciel couvert à une hauteur de 1200 ft
faibles averses de neige

TAF: CYMT 162048Z 1620/1624 18008KT 6SM -SN OVC025 TEMPO 1620/1624 11/2SM -SHSN OVC012 RMK FCST BASED ON AUTO OBS. NXT FCST WILL BE ISSUED AT 171145Z

Observations et prévisions météorologiques de plus de 4000 aéroports (messages METAR et TAF).

Les stations disponibles sont représentées par des disques jaunes et rouges sur la carte.

Passer la souris dessus pour voir le nom de la station.

Cliquer dessus pour voir les observations et prévisions météorologiques.

Pour changer de carte: cliquez sur les boutons verts avec une croix noire pour zoomer, sur le bouton vert avec un tiret pour effectuer un zoom arrière, ou sur les flèches vertes pour les cartes adjacentes.


METAR-TAF: